Extreme weather reports worldwide

Thunderstorm

Station
 
Location
 
Name
 
Wind
Knots
Gust
Knots
Vis
SM
Temp/Dew
C
Baro
inHg
METAR
 
SPS KSPS Wichita Falls, US Sheppard Air Force Base-Wichita Falls Municipal Airport 20 30 23/16 29.98 KSPS 280735Z 15020G30KT 10SM -TSRA FEW070 FEW090 BKN120 24/17 A2998 RMK AO2 PK WND 12037/0721 WSHFT 0715 LTG DSNT ALQDS RAB22 P0000 T02390167
KCQX Chatham, US Chatham Municipal Airport 9 22 / 29.75 KCQX 280745Z AUTO 21009G22KT TS FEW003 SCT010 OVC030 A2975 RMK AO2 LTG DSNT ALQDS TSE08B09E28B40 PWINO $
MVY KMVY Martha's Vineyard, US Martha's Vineyard Airport 12 20 4 18/18 29.71 KMVY 280727Z AUTO 21012G20KT 4SM TSRA BR SCT006 BKN048 OVC080 19/19 A2971 RMK AO2 PK WND 19026/0659 LTG DSNT ALQDS P0016 T01890189
KIP KCWC Wichita Falls, US Kickapoo Downtown Airport 13 17 3 22/18 30.07 KCWC 280735Z AUTO 33013G17KT 3SM +TSRA SCT017 BKN029 OVC035 22/18 A3007 RMK AO2 LTG DSNT ALQDS P0029 T02210183
KGHG Marshfield, US Marshfield Municipal George Harlow Field 10 17 19/19 29.67 KGHG 280735Z AUTO 20010G17KT 10SM VCTS OVC007 19/19 A2967 RMK AO2 LTG DSNT SE

Station
 
Location
 
Name
 
Wind
Knots
Gust
Knots
Vis
SM
Temp/Dew
C
Baro
inHg
METAR
 
QPG WSAP SG Paya Lebar Air Base 16 31/23 29.76 WSAP 280710Z 14016KT 9999 VCTS FEW015CB SCT016 FEW016TCU 31/23 Q1008
CGP VGEG Chittagong, BD Shah Amanat International Airport 15 0.87 26/26 29.50 VGEG 280700Z 26015KT 1400 TSRA BKN008 SCT020CB OVC080 26/26 Q0999 TEMPO P/VIS
ACK KACK Nantucket, US Nantucket Memorial Airport 15 0.75 15/15 29.73 KACK 280734Z AUTO 17015KT 3/4SM VCTS -RA BR 16/16 A2973 RMK AO2 LTG DSNT W-NE RAB29 P0000 T01560156 RVRNO
ADM KADM Ardmore, US Ardmore Municipal Airport 14 25/15 30.01 KADM 280735Z AUTO 02014KT 10SM VCTS FEW035 SCT045 BKN060 25/15 A3001 RMK AO2 LTG DSNT ALQDS
FMH KFMH Falmouth, US Cape Cod Coast Guard Air Station 13 2 18/18 29.74 KFMH 280645Z 16013KT 2SM VCTS RA OVC004 18/18 A2974
EHMA 13 14/8 30.00 EHMA 280725Z AUTO 21013KT 9999 -TSRA FEW012 FEW022CB 14/08 Q1016
KF05 11 23/18 30.01 KF05 280735Z AUTO 07011KT 10SM TS SCT028 BKN060 OVC090 23/19 A3001 RMK AO2 LTG DSNT ALQS P0001 T02310186
FDR KFDR Frederick, US Frederick Regional Airport 10 22/16 29.95 KFDR 280741Z AUTO 10010KT 10SM VCTS CLR 23/16 A2995 RMK AO2 LTG DSNT ALQDS T02280161 $
MFM VMMC Macau, MO Macau International Airport 10 3.73 26/25 29.56 VMMC 280730Z 21010KT 180V240 6000 -TSRA FEW015 FEW018CB SCT045 26/25 Q1001 NOSIG
SZB WMSA Subang, MY Sultan Abdul Aziz Shah International Airport 9 33/25 29.73 WMSA 280720Z 15009KT 100V190 9999 TS FEW017CB 33/25 Q1007
SSG FGSL Malabo, GQ Malabo Airport 8 4.97 27/22 29.88 FGSL 280700Z 10008KT 060V120 8000 TS SCT008 FEW020CB BKN040 27/22 Q1012 BECMG NSW
KTDR 8 27/26 29.92 KTDR 280707Z AUTO 24008KT 10SM VCTS OVC009 27/26 A2992 RMK AO2 SLP135 $
ISE LTFC Isparta, TR S├╝leyman Demirel International Airport 6 4.97 12/11 29.97 LTFC 280720Z 19006KT 8000 -TSRA FEW020CB BKN030 12/11 Q1015 RMK RWY23 21006KT
KRR URKK Krasnodar, RU Krasnodar Pashkovsky International Airport 6 18/14 30.00 URKK 280730Z 06003MPS 9999 VCTS -SHRA SCT045CB 18/14 Q1016 R05R/CLRD70 TEMPO 3000 -TSRA BKN020CB RMK QFE759
PPS RPVP Puerto Princesa City, PH Puerto Princesa Airport 6 28/26 29.73 RPVP 280700Z 21006KT 9999 -TSRA FEW017CB SCT019 OVC080 28/26 Q1007 RMK A2974 CB E-SE
CHS KCHS Charleston, US Charleston Air Force Base-International Airport 5 26/22 29.91 KCHS 280656Z 24005KT 10SM TS SCT045CB SCT070 BKN130 26/23 A2991 RMK AO2 SLP128 FRQ LTGICCC N-E TS N-E MOV NE T02610228
KPVJ Pauls Valley, US Pauls Valley Municipal Airport 5 23/16 30.04 KPVJ 280735Z AUTO 20005KT 10SM VCTS SCT055 BKN090 24/16 A3004 RMK AO2 LTG DSNT ALQS T02350161
KUL WMKK Kuala Lumpur, MY Kuala Lumpur International Airport 4 4.35 27/27 29.73 WMKK 280730Z 12004KT 030V200 7000 -TSRA FEW008 FEW017CB SCT030 27/27 Q1007 RETSRA TEMPO 8000 -TSRA
BKI WBKK Kota Kinabalu, MY Kota Kinabalu International Airport 4 34/27 29.70 WBKK 280730Z VRB04KT 9999 TS FEW014 FEW016CB 34/27 Q1006 NOSIG
KJZI Charleston, US Charleston Executive Airport 4 9 26/25 29.92 KJZI 280735Z AUTO 29004KT 9SM TS SCT065 BKN075 BKN095 26/25 A2992 RMK AO2 LTG DSNT ALQDS
PHC DNPO Port Harcourt, NG Port Harcourt International Airport 3 3.73 23/22 29.91 DNPO 280700Z 30003KT 6000 -TSRA BKN006 FEW019CB 23/22 Q1013 NOSIG
TUD GOTT Tambacounda, SN Tambacounda Airport 2 28/26 29.91 GOTT 280700Z 21002KT 9999 TS FEW030CB 28/26 Q1013
KFPY 0 2.5 21/19 30.01 KFPY 280735Z AUTO 00000KT 2 1/2SM +VCTSRA SCT025 BKN038 OVC095 22/20 A3001 RMK AO2 VIS 1V5 LTG DSNT E AND SE P0033 T02150199
KOLY Olney-Noble, US Olney Noble Airport 0 16/15 29.96 KOLY 280730Z AUTO 00000KT 10SM TS CLR 16/15 A2996 RMK AO2 LTG DSNT NE T01640153
KLRO Mount Pleasant, US Mt Pleasant Regional-Faison field 0 6 26/26 29.91 KLRO 280735Z AUTO 00000KT 6SM VCTS BR FEW060 BKN085 26/26 A2991 RMK AO2 LTG DSNT NE-S
CTY KCTY Cross City, US Cross City Airport 0 7 23/23 30.01 KCTY 280735Z AUTO 00000KT 7SM VCTSBR SCT022 SCT031 OVC090 23/23 A3001 RMK AO2 LTG DSNT NW THRU NE
KHYW Conway, US Conway Horry County Airport 0 23/22 29.91 KHYW 280735Z AUTO 00000KT 10SM VCTS CLR 23/22 A2991 RMK AO2 LTG DSNT SE AND SW